sensor_id;sensor_type;location;lat;lon;timestamp;P1;durP1;ratioP1;P2;durP2;ratioP2
77597;SDS011;66756;42.774;23.354;2023-09-19T00:02:16;4.45;;;2.28;;
77597;SDS011;66756;42.774;23.354;2023-09-19T00:04:42;4.40;;;2.35;;
77597;SDS011;66756;42.774;23.354;2023-09-19T00:07:08;6.35;;;2.30;;
77597;SDS011;66756;42.774;23.354;2023-09-19T00:09:34;5.22;;;2.00;;
77597;SDS011;66756;42.774;23.354;2023-09-19T00:12:06;4.03;;;3.28;;
77597;SDS011;66756;42.774;23.354;2023-09-19T00:14:34;4.53;;;2.08;;
77597;SDS011;66756;42.774;23.354;2023-09-19T00:17:01;4.80;;;2.22;;
77597;SDS011;66756;42.774;23.354;2023-09-19T00:19:33;4.28;;;1.67;;
77597;SDS011;66756;42.774;23.354;2023-09-19T00:21:59;3.83;;;2.17;;
77597;SDS011;66756;42.774;23.354;2023-09-19T00:24:25;3.65;;;1.70;;
77597;SDS011;66756;42.774;23.354;2023-09-19T00:26:53;4.05;;;2.88;;
77597;SDS011;66756;42.774;23.354;2023-09-19T00:29:24;3.50;;;1.77;;
77597;SDS011;66756;42.774;23.354;2023-09-19T00:31:54;5.90;;;2.78;;
77597;SDS011;66756;42.774;23.354;2023-09-19T00:34:21;3.42;;;2.22;;
77597;SDS011;66756;42.774;23.354;2023-09-19T00:36:47;4.78;;;2.55;;
77597;SDS011;66756;42.774;23.354;2023-09-19T00:39:13;4.43;;;1.92;;
77597;SDS011;66756;42.774;23.354;2023-09-19T00:41:39;4.68;;;2.03;;
77597;SDS011;66756;42.774;23.354;2023-09-19T00:44:05;3.58;;;1.92;;
77597;SDS011;66756;42.774;23.354;2023-09-19T00:46:32;3.83;;;2.60;;
77597;SDS011;66756;42.774;23.354;2023-09-19T00:48:58;4.70;;;2.47;;
77597;SDS011;66756;42.774;23.354;2023-09-19T00:51:25;4.60;;;1.83;;
77597;SDS011;66756;42.774;23.354;2023-09-19T00:53:52;4.53;;;2.45;;
77597;SDS011;66756;42.774;23.354;2023-09-19T00:56:18;5.32;;;2.40;;
77597;SDS011;66756;42.774;23.354;2023-09-19T00:58:45;5.43;;;2.03;;
77597;SDS011;66756;42.774;23.354;2023-09-19T01:01:12;4.72;;;2.47;;
77597;SDS011;66756;42.774;23.354;2023-09-19T01:03:39;3.95;;;2.50;;
77597;SDS011;66756;42.774;23.354;2023-09-19T01:06:05;5.07;;;2.35;;
77597;SDS011;66756;42.774;23.354;2023-09-19T01:08:33;5.10;;;2.00;;
77597;SDS011;66756;42.774;23.354;2023-09-19T01:11:01;5.82;;;2.42;;
77597;SDS011;66756;42.774;23.354;2023-09-19T01:13:31;5.80;;;2.20;;
77597;SDS011;66756;42.774;23.354;2023-09-19T01:31:44;6.15;;;3.38;;
77597;SDS011;66756;42.774;23.354;2023-09-19T01:34:10;3.42;;;2.30;;
77597;SDS011;66756;42.774;23.354;2023-09-19T01:36:37;4.93;;;2.15;;
77597;SDS011;66756;42.774;23.354;2023-09-19T01:39:07;3.22;;;2.22;;
77597;SDS011;66756;42.774;23.354;2023-09-19T01:47:52;3.65;;;1.88;;
77597;SDS011;66756;42.774;23.354;2023-09-19T01:52:28;4.45;;;1.88;;
77597;SDS011;66756;42.774;23.354;2023-09-19T01:54:59;5.03;;;2.53;;
77597;SDS011;66756;42.774;23.354;2023-09-19T02:00:15;4.07;;;2.42;;
77597;SDS011;66756;42.774;23.354;2023-09-19T02:02:43;3.92;;;2.70;;
77597;SDS011;66756;42.774;23.354;2023-09-19T02:05:10;4.10;;;1.85;;
77597;SDS011;66756;42.774;23.354;2023-09-19T02:07:37;4.78;;;3.15;;
77597;SDS011;66756;42.774;23.354;2023-09-19T02:10:05;6.20;;;2.72;;
77597;SDS011;66756;42.774;23.354;2023-09-19T02:12:31;3.80;;;2.10;;
77597;SDS011;66756;42.774;23.354;2023-09-19T02:14:58;6.03;;;2.83;;
77597;SDS011;66756;42.774;23.354;2023-09-19T02:17:24;4.80;;;2.42;;
77597;SDS011;66756;42.774;23.354;2023-09-19T02:19:54;3.55;;;1.95;;
77597;SDS011;66756;42.774;23.354;2023-09-19T02:22:20;4.60;;;2.03;;
77597;SDS011;66756;42.774;23.354;2023-09-19T02:24:47;3.92;;;1.73;;
77597;SDS011;66756;42.774;23.354;2023-09-19T02:27:14;4.97;;;2.22;;
77597;SDS011;66756;42.774;23.354;2023-09-19T02:29:41;5.72;;;2.45;;
77597;SDS011;66756;42.774;23.354;2023-09-19T02:32:07;6.72;;;3.50;;
77597;SDS011;66756;42.774;23.354;2023-09-19T02:34:34;5.05;;;2.90;;
77597;SDS011;66756;42.774;23.354;2023-09-19T02:37:07;4.43;;;2.45;;
77597;SDS011;66756;42.774;23.354;2023-09-19T02:39:38;6.68;;;3.17;;
77597;SDS011;66756;42.774;23.354;2023-09-19T02:42:04;6.50;;;2.75;;
77597;SDS011;66756;42.774;23.354;2023-09-19T02:44:30;5.93;;;3.13;;
77597;SDS011;66756;42.774;23.354;2023-09-19T02:46:57;6.15;;;3.20;;
77597;SDS011;66756;42.774;23.354;2023-09-19T02:49:23;5.05;;;3.35;;
77597;SDS011;66756;42.774;23.354;2023-09-19T02:51:50;6.38;;;3.47;;
77597;SDS011;66756;42.774;23.354;2023-09-19T02:54:16;5.03;;;3.60;;
77597;SDS011;66756;42.774;23.354;2023-09-19T02:56:43;5.15;;;2.88;;
77597;SDS011;66756;42.774;23.354;2023-09-19T02:59:09;4.65;;;3.05;;
77597;SDS011;66756;42.774;23.354;2023-09-19T03:01:38;5.53;;;2.90;;
77597;SDS011;66756;42.774;23.354;2023-09-19T03:04:04;4.65;;;2.70;;
77597;SDS011;66756;42.774;23.354;2023-09-19T03:06:36;5.65;;;2.65;;
77597;SDS011;66756;42.774;23.354;2023-09-19T03:09:03;6.40;;;2.85;;
77597;SDS011;66756;42.774;23.354;2023-09-19T03:11:38;4.97;;;1.80;;
77597;SDS011;66756;42.774;23.354;2023-09-19T03:14:05;5.80;;;3.00;;
77597;SDS011;66756;42.774;23.354;2023-09-19T03:16:31;5.05;;;2.83;;
77597;SDS011;66756;42.774;23.354;2023-09-19T03:18:58;5.10;;;2.88;;
77597;SDS011;66756;42.774;23.354;2023-09-19T03:21:24;5.03;;;3.35;;
77597;SDS011;66756;42.774;23.354;2023-09-19T03:23:50;5.13;;;2.58;;
77597;SDS011;66756;42.774;23.354;2023-09-19T03:26:17;5.32;;;3.00;;
77597;SDS011;66756;42.774;23.354;2023-09-19T03:28:43;4.35;;;2.53;;
77597;SDS011;66756;42.774;23.354;2023-09-19T03:31:11;4.60;;;2.67;;
77597;SDS011;66756;42.774;23.354;2023-09-19T03:33:37;4.82;;;2.80;;
77597;SDS011;66756;42.774;23.354;2023-09-19T03:36:03;5.20;;;2.63;;
77597;SDS011;66756;42.774;23.354;2023-09-19T03:38:32;5.47;;;2.75;;
77597;SDS011;66756;42.774;23.354;2023-09-19T03:40:59;5.05;;;2.72;;
77597;SDS011;66756;42.774;23.354;2023-09-19T03:43:26;5.65;;;2.80;;
77597;SDS011;66756;42.774;23.354;2023-09-19T03:45:52;6.15;;;2.40;;
77597;SDS011;66756;42.774;23.354;2023-09-19T03:48:19;4.35;;;2.15;;
77597;SDS011;66756;42.774;23.354;2023-09-19T03:50:47;5.13;;;2.03;;
77597;SDS011;66756;42.774;23.354;2023-09-19T03:53:13;4.00;;;2.45;;
77597;SDS011;66756;42.774;23.354;2023-09-19T03:55:39;4.82;;;2.15;;
77597;SDS011;66756;42.774;23.354;2023-09-19T03:58:05;3.47;;;2.10;;
77597;SDS011;66756;42.774;23.354;2023-09-19T04:00:31;3.80;;;2.13;;
77597;SDS011;66756;42.774;23.354;2023-09-19T04:02:57;6.25;;;2.38;;
77597;SDS011;66756;42.774;23.354;2023-09-19T04:05:23;4.93;;;2.53;;
77597;SDS011;66756;42.774;23.354;2023-09-19T04:07:50;5.32;;;2.53;;
77597;SDS011;66756;42.774;23.354;2023-09-19T04:10:16;3.90;;;2.58;;
77597;SDS011;66756;42.774;23.354;2023-09-19T04:12:52;4.32;;;1.90;;
77597;SDS011;66756;42.774;23.354;2023-09-19T04:15:18;4.22;;;2.40;;
77597;SDS011;66756;42.774;23.354;2023-09-19T04:20:48;4.72;;;2.08;;
77597;SDS011;66756;42.774;23.354;2023-09-19T04:23:15;5.18;;;2.60;;
77597;SDS011;66756;42.774;23.354;2023-09-19T04:25:41;3.67;;;2.20;;
77597;SDS011;66756;42.774;23.354;2023-09-19T04:28:07;3.75;;;2.20;;
77597;SDS011;66756;42.774;23.354;2023-09-19T04:30:33;5.28;;;2.50;;
77597;SDS011;66756;42.774;23.354;2023-09-19T04:33:00;4.95;;;2.35;;
77597;SDS011;66756;42.774;23.354;2023-09-19T04:35:26;4.50;;;2.20;;
77597;SDS011;66756;42.774;23.354;2023-09-19T04:37:54;4.45;;;2.22;;
77597;SDS011;66756;42.774;23.354;2023-09-19T04:40:20;4.95;;;2.65;;
77597;SDS011;66756;42.774;23.354;2023-09-19T04:42:54;5.40;;;3.17;;
77597;SDS011;66756;42.774;23.354;2023-09-19T04:45:23;5.43;;;3.25;;
77597;SDS011;66756;42.774;23.354;2023-09-19T04:47:49;5.55;;;3.13;;
77597;SDS011;66756;42.774;23.354;2023-09-19T04:50:15;7.35;;;3.47;;
77597;SDS011;66756;42.774;23.354;2023-09-19T04:52:45;4.70;;;3.17;;
77597;SDS011;66756;42.774;23.354;2023-09-19T04:55:15;5.85;;;3.90;;
77597;SDS011;66756;42.774;23.354;2023-09-19T04:57:51;6.95;;;4.22;;
77597;SDS011;66756;42.774;23.354;2023-09-19T05:00:21;8.80;;;4.35;;
77597;SDS011;66756;42.774;23.354;2023-09-19T05:02:54;6.90;;;4.65;;
77597;SDS011;66756;42.774;23.354;2023-09-19T05:05:21;7.72;;;5.10;;
77597;SDS011;66756;42.774;23.354;2023-09-19T05:07:48;7.07;;;4.82;;
77597;SDS011;66756;42.774;23.354;2023-09-19T05:10:14;6.32;;;4.07;;
77597;SDS011;66756;42.774;23.354;2023-09-19T05:12:43;8.02;;;4.55;;
77597;SDS011;66756;42.774;23.354;2023-09-19T05:15:12;5.78;;;3.63;;
77597;SDS011;66756;42.774;23.354;2023-09-19T05:17:40;5.53;;;3.70;;
77597;SDS011;66756;42.774;23.354;2023-09-19T05:20:06;5.20;;;3.38;;
77597;SDS011;66756;42.774;23.354;2023-09-19T05:22:42;5.57;;;3.30;;
77597;SDS011;66756;42.774;23.354;2023-09-19T05:25:11;7.68;;;3.50;;
77597;SDS011;66756;42.774;23.354;2023-09-19T05:27:42;6.88;;;3.47;;
77597;SDS011;66756;42.774;23.354;2023-09-19T05:30:09;5.82;;;3.38;;
77597;SDS011;66756;42.774;23.354;2023-09-19T05:32:35;5.28;;;3.05;;
77597;SDS011;66756;42.774;23.354;2023-09-19T05:35:01;7.25;;;4.07;;
77597;SDS011;66756;42.774;23.354;2023-09-19T05:37:28;7.35;;;3.53;;
77597;SDS011;66756;42.774;23.354;2023-09-19T05:39:54;4.55;;;3.17;;
77597;SDS011;66756;42.774;23.354;2023-09-19T05:42:20;7.93;;;4.22;;
77597;SDS011;66756;42.774;23.354;2023-09-19T05:44:46;9.88;;;3.88;;
77597;SDS011;66756;42.774;23.354;2023-09-19T05:47:12;6.72;;;4.53;;
77597;SDS011;66756;42.774;23.354;2023-09-19T05:49:38;8.43;;;4.53;;
77597;SDS011;66756;42.774;23.354;2023-09-19T05:52:05;6.53;;;4.78;;
77597;SDS011;66756;42.774;23.354;2023-09-19T05:54:32;8.60;;;4.90;;
77597;SDS011;66756;42.774;23.354;2023-09-19T05:56:59;6.55;;;4.25;;
77597;SDS011;66756;42.774;23.354;2023-09-19T05:59:25;9.88;;;3.80;;
77597;SDS011;66756;42.774;23.354;2023-09-19T06:01:51;7.30;;;4.25;;
77597;SDS011;66756;42.774;23.354;2023-09-19T06:04:17;6.55;;;4.50;;
77597;SDS011;66756;42.774;23.354;2023-09-19T06:06:44;7.55;;;4.28;;
77597;SDS011;66756;42.774;23.354;2023-09-19T06:09:10;6.68;;;3.70;;
77597;SDS011;66756;42.774;23.354;2023-09-19T06:11:36;7.00;;;3.85;;
77597;SDS011;66756;42.774;23.354;2023-09-19T06:14:02;7.22;;;3.70;;
77597;SDS011;66756;42.774;23.354;2023-09-19T06:16:32;6.55;;;3.63;;
77597;SDS011;66756;42.774;23.354;2023-09-19T06:18:58;6.00;;;3.50;;
77597;SDS011;66756;42.774;23.354;2023-09-19T06:21:27;7.35;;;4.07;;
77597;SDS011;66756;42.774;23.354;2023-09-19T06:23:53;5.32;;;3.75;;
77597;SDS011;66756;42.774;23.354;2023-09-19T06:26:20;7.18;;;3.40;;
77597;SDS011;66756;42.774;23.354;2023-09-19T06:28:46;4.45;;;3.25;;
77597;SDS011;66756;42.774;23.354;2023-09-19T06:31:12;6.18;;;3.53;;
77597;SDS011;66756;42.774;23.354;2023-09-19T06:33:38;6.53;;;3.47;;
77597;SDS011;66756;42.774;23.354;2023-09-19T06:36:07;5.13;;;3.15;;
77597;SDS011;66756;42.774;23.354;2023-09-19T06:38:33;5.63;;;3.47;;
77597;SDS011;66756;42.774;23.354;2023-09-19T06:41:01;4.72;;;3.10;;
77597;SDS011;66756;42.774;23.354;2023-09-19T06:43:29;7.05;;;3.67;;
77597;SDS011;66756;42.774;23.354;2023-09-19T06:45:56;5.75;;;3.28;;
77597;SDS011;66756;42.774;23.354;2023-09-19T06:48:22;6.13;;;3.25;;
77597;SDS011;66756;42.774;23.354;2023-09-19T06:50:50;4.85;;;2.95;;
77597;SDS011;66756;42.774;23.354;2023-09-19T06:53:16;6.68;;;2.80;;
77597;SDS011;66756;42.774;23.354;2023-09-19T06:55:42;4.75;;;1.90;;
77597;SDS011;66756;42.774;23.354;2023-09-19T06:58:10;4.25;;;1.70;;
77597;SDS011;66756;42.774;23.354;2023-09-19T07:00:36;4.65;;;2.35;;
77597;SDS011;66756;42.774;23.354;2023-09-19T07:03:04;4.20;;;2.10;;
77597;SDS011;66756;42.774;23.354;2023-09-19T07:05:33;3.00;;;1.83;;
77597;SDS011;66756;42.774;23.354;2023-09-19T07:08:02;4.30;;;1.85;;
77597;SDS011;66756;42.774;23.354;2023-09-19T07:10:29;4.80;;;2.33;;
77597;SDS011;66756;42.774;23.354;2023-09-19T07:13:05;3.50;;;1.98;;
77597;SDS011;66756;42.774;23.354;2023-09-19T07:15:34;3.53;;;1.88;;
77597;SDS011;66756;42.774;23.354;2023-09-19T07:18:03;3.58;;;3.15;;
77597;SDS011;66756;42.774;23.354;2023-09-19T07:20:29;3.05;;;1.92;;
77597;SDS011;66756;42.774;23.354;2023-09-19T07:22:57;3.38;;;1.73;;
77597;SDS011;66756;42.774;23.354;2023-09-19T07:25:26;3.03;;;1.95;;
77597;SDS011;66756;42.774;23.354;2023-09-19T07:27:54;4.18;;;2.63;;
77597;SDS011;66756;42.774;23.354;2023-09-19T07:30:21;4.28;;;2.30;;
77597;SDS011;66756;42.774;23.354;2023-09-19T07:32:47;4.68;;;1.90;;
77597;SDS011;66756;42.774;23.354;2023-09-19T07:35:13;3.90;;;1.90;;
77597;SDS011;66756;42.774;23.354;2023-09-19T07:37:40;4.63;;;2.50;;
77597;SDS011;66756;42.774;23.354;2023-09-19T07:40:06;3.63;;;1.55;;
77597;SDS011;66756;42.774;23.354;2023-09-19T07:42:33;4.38;;;2.08;;
77597;SDS011;66756;42.774;23.354;2023-09-19T07:45:00;5.55;;;1.52;;
77597;SDS011;66756;42.774;23.354;2023-09-19T07:47:26;5.38;;;2.60;;
77597;SDS011;66756;42.774;23.354;2023-09-19T07:49:52;4.63;;;1.98;;
77597;SDS011;66756;42.774;23.354;2023-09-19T07:52:20;3.67;;;2.03;;
77597;SDS011;66756;42.774;23.354;2023-09-19T07:54:48;3.67;;;1.85;;
77597;SDS011;66756;42.774;23.354;2023-09-19T07:57:14;4.53;;;1.77;;
77597;SDS011;66756;42.774;23.354;2023-09-19T07:59:41;5.03;;;2.30;;
77597;SDS011;66756;42.774;23.354;2023-09-19T08:02:08;3.67;;;2.03;;
77597;SDS011;66756;42.774;23.354;2023-09-19T08:04:40;4.00;;;2.08;;
77597;SDS011;66756;42.774;23.354;2023-09-19T08:07:07;4.25;;;2.35;;
77597;SDS011;66756;42.774;23.354;2023-09-19T08:09:36;4.57;;;1.95;;
77597;SDS011;66756;42.774;23.354;2023-09-19T08:12:03;3.47;;;2.13;;
77597;SDS011;66756;42.774;23.354;2023-09-19T08:14:30;4.85;;;2.75;;
77597;SDS011;66756;42.774;23.354;2023-09-19T08:16:56;5.97;;;2.53;;
77597;SDS011;66756;42.774;23.354;2023-09-19T08:19:23;3.50;;;1.85;;
77597;SDS011;66756;42.774;23.354;2023-09-19T08:21:55;5.78;;;2.35;;
77597;SDS011;66756;42.774;23.354;2023-09-19T08:24:23;5.47;;;2.58;;
77597;SDS011;66756;42.774;23.354;2023-09-19T08:26:50;5.70;;;2.10;;
77597;SDS011;66756;42.774;23.354;2023-09-19T08:29:16;5.68;;;2.15;;
77597;SDS011;66756;42.774;23.354;2023-09-19T08:31:42;6.50;;;2.38;;
77597;SDS011;66756;42.774;23.354;2023-09-19T08:34:08;5.95;;;2.50;;
77597;SDS011;66756;42.774;23.354;2023-09-19T08:36:34;5.68;;;3.08;;
77597;SDS011;66756;42.774;23.354;2023-09-19T08:39:02;5.22;;;2.35;;
77597;SDS011;66756;42.774;23.354;2023-09-19T08:41:28;4.85;;;2.50;;
77597;SDS011;66756;42.774;23.354;2023-09-19T08:43:54;4.10;;;2.40;;
77597;SDS011;66756;42.774;23.354;2023-09-19T08:46:26;4.50;;;2.42;;
77597;SDS011;66756;42.774;23.354;2023-09-19T08:51:42;4.40;;;2.58;;
77597;SDS011;66756;42.774;23.354;2023-09-19T08:54:12;4.53;;;2.47;;
77597;SDS011;66756;42.774;23.354;2023-09-19T08:56:44;4.55;;;2.75;;
77597;SDS011;66756;42.774;23.354;2023-09-19T08:59:10;4.35;;;3.03;;
77597;SDS011;66756;42.774;23.354;2023-09-19T09:01:37;6.45;;;2.90;;
77597;SDS011;66756;42.774;23.354;2023-09-19T09:04:05;7.13;;;3.10;;
77597;SDS011;66756;42.774;23.354;2023-09-19T09:06:34;4.50;;;2.28;;
77597;SDS011;66756;42.774;23.354;2023-09-19T09:09:00;5.43;;;2.95;;
77597;SDS011;66756;42.774;23.354;2023-09-19T09:11:26;6.63;;;2.97;;
77597;SDS011;66756;42.774;23.354;2023-09-19T09:13:53;5.53;;;3.35;;
77597;SDS011;66756;42.774;23.354;2023-09-19T09:16:19;5.07;;;3.13;;
77597;SDS011;66756;42.774;23.354;2023-09-19T09:18:45;5.18;;;2.80;;
77597;SDS011;66756;42.774;23.354;2023-09-19T09:21:17;5.90;;;2.85;;
77597;SDS011;66756;42.774;23.354;2023-09-19T09:23:46;4.03;;;2.60;;
77597;SDS011;66756;42.774;23.354;2023-09-19T09:26:12;4.18;;;2.42;;
77597;SDS011;66756;42.774;23.354;2023-09-19T09:28:45;5.28;;;3.17;;
77597;SDS011;66756;42.774;23.354;2023-09-19T09:31:23;5.60;;;2.90;;
77597;SDS011;66756;42.774;23.354;2023-09-19T09:33:53;6.97;;;3.30;;
77597;SDS011;66756;42.774;23.354;2023-09-19T09:38:46;5.35;;;2.88;;
77597;SDS011;66756;42.774;23.354;2023-09-19T09:41:13;5.05;;;2.88;;
77597;SDS011;66756;42.774;23.354;2023-09-19T09:43:52;4.18;;;2.47;;
77597;SDS011;66756;42.774;23.354;2023-09-19T09:46:18;4.65;;;3.08;;
77597;SDS011;66756;42.774;23.354;2023-09-19T09:51:38;6.75;;;3.50;;
77597;SDS011;66756;42.774;23.354;2023-09-19T09:56:53;5.13;;;2.97;;
77597;SDS011;66756;42.774;23.354;2023-09-19T09:59:20;5.57;;;3.08;;
77597;SDS011;66756;42.774;23.354;2023-09-19T10:01:50;6.55;;;3.13;;
77597;SDS011;66756;42.774;23.354;2023-09-19T10:04:28;4.78;;;3.05;;
77597;SDS011;66756;42.774;23.354;2023-09-19T10:07:01;5.03;;;2.97;;
77597;SDS011;66756;42.774;23.354;2023-09-19T10:09:44;7.32;;;2.63;;
77597;SDS011;66756;42.774;23.354;2023-09-19T10:12:12;6.68;;;3.13;;
77597;SDS011;66756;42.774;23.354;2023-09-19T10:14:38;5.30;;;3.28;;
77597;SDS011;66756;42.774;23.354;2023-09-19T10:17:09;4.43;;;2.63;;
77597;SDS011;66756;42.774;23.354;2023-09-19T10:22:22;6.15;;;3.40;;
77597;SDS011;66756;42.774;23.354;2023-09-19T10:24:49;6.00;;;3.28;;
77597;SDS011;66756;42.774;23.354;2023-09-19T10:27:21;5.20;;;3.13;;
77597;SDS011;66756;42.774;23.354;2023-09-19T10:29:51;4.75;;;2.88;;
77597;SDS011;66756;42.774;23.354;2023-09-19T10:32:22;5.85;;;2.65;;
77597;SDS011;66756;42.774;23.354;2023-09-19T10:34:49;8.18;;;3.72;;
77597;SDS011;66756;42.774;23.354;2023-09-19T10:37:18;4.45;;;3.30;;
77597;SDS011;66756;42.774;23.354;2023-09-19T10:39:46;5.07;;;3.20;;
77597;SDS011;66756;42.774;23.354;2023-09-19T10:42:15;5.72;;;2.95;;
77597;SDS011;66756;42.774;23.354;2023-09-19T10:44:42;4.95;;;2.83;;
77597;SDS011;66756;42.774;23.354;2023-09-19T10:47:09;7.60;;;3.35;;
77597;SDS011;66756;42.774;23.354;2023-09-19T10:49:35;4.25;;;2.70;;
77597;SDS011;66756;42.774;23.354;2023-09-19T10:52:08;4.80;;;2.88;;
77597;SDS011;66756;42.774;23.354;2023-09-19T10:54:41;4.00;;;3.15;;
77597;SDS011;66756;42.774;23.354;2023-09-19T10:57:11;5.60;;;3.08;;
77597;SDS011;66756;42.774;23.354;2023-09-19T10:59:59;4.53;;;2.80;;
77597;SDS011;66756;42.774;23.354;2023-09-19T11:02:27;5.65;;;3.53;;
77597;SDS011;66756;42.774;23.354;2023-09-19T11:04:53;5.63;;;3.35;;
77597;SDS011;66756;42.774;23.354;2023-09-19T11:07:21;5.28;;;3.25;;
77597;SDS011;66756;42.774;23.354;2023-09-19T11:09:54;5.60;;;2.97;;
77597;SDS011;66756;42.774;23.354;2023-09-19T11:15:00;5.90;;;3.10;;
77597;SDS011;66756;42.774;23.354;2023-09-19T11:17:42;4.50;;;2.63;;
77597;SDS011;66756;42.774;23.354;2023-09-19T11:30:33;4.93;;;3.00;;
77597;SDS011;66756;42.774;23.354;2023-09-19T11:33:19;5.18;;;3.00;;
77597;SDS011;66756;42.774;23.354;2023-09-19T11:36:19;5.50;;;3.45;;
77597;SDS011;66756;42.774;23.354;2023-09-19T11:43:53;5.13;;;3.30;;
77597;SDS011;66756;42.774;23.354;2023-09-19T11:46:25;4.40;;;3.03;;
77597;SDS011;66756;42.774;23.354;2023-09-19T11:48:53;6.10;;;3.80;;
77597;SDS011;66756;42.774;23.354;2023-09-19T11:51:19;4.78;;;3.38;;
77597;SDS011;66756;42.774;23.354;2023-09-19T11:53:52;7.10;;;3.50;;
77597;SDS011;66756;42.774;23.354;2023-09-19T11:56:23;4.50;;;3.10;;
77597;SDS011;66756;42.774;23.354;2023-09-19T11:58:51;6.47;;;3.42;;
77597;SDS011;66756;42.774;23.354;2023-09-19T12:03:54;5.80;;;3.45;;
77597;SDS011;66756;42.774;23.354;2023-09-19T12:06:22;5.70;;;3.78;;
77597;SDS011;66756;42.774;23.354;2023-09-19T12:08:49;6.38;;;3.83;;
77597;SDS011;66756;42.774;23.354;2023-09-19T12:11:16;6.88;;;3.85;;
77597;SDS011;66756;42.774;23.354;2023-09-19T12:13:45;4.80;;;3.63;;
77597;SDS011;66756;42.774;23.354;2023-09-19T12:16:16;5.28;;;3.88;;
77597;SDS011;66756;42.774;23.354;2023-09-19T12:18:43;5.35;;;3.20;;
77597;SDS011;66756;42.774;23.354;2023-09-19T12:26:26;5.38;;;3.53;;
77597;SDS011;66756;42.774;23.354;2023-09-19T12:28:54;6.60;;;3.50;;
77597;SDS011;66756;42.774;23.354;2023-09-19T12:31:21;11.68;;;3.40;;
77597;SDS011;66756;42.774;23.354;2023-09-19T12:33:52;5.10;;;4.45;;
77597;SDS011;66756;42.774;23.354;2023-09-19T12:36:22;5.00;;;4.05;;
77597;SDS011;66756;42.774;23.354;2023-09-19T12:38:54;5.13;;;3.67;;
77597;SDS011;66756;42.774;23.354;2023-09-19T12:41:21;6.13;;;3.90;;
77597;SDS011;66756;42.774;23.354;2023-09-19T12:43:47;6.05;;;3.83;;
77597;SDS011;66756;42.774;23.354;2023-09-19T12:46:13;5.22;;;3.45;;
77597;SDS011;66756;42.774;23.354;2023-09-19T12:48:40;5.85;;;3.92;;
77597;SDS011;66756;42.774;23.354;2023-09-19T12:51:11;5.25;;;4.25;;
77597;SDS011;66756;42.774;23.354;2023-09-19T12:56:12;6.18;;;3.72;;
77597;SDS011;66756;42.774;23.354;2023-09-19T12:58:51;5.78;;;3.75;;
77597;SDS011;66756;42.774;23.354;2023-09-19T13:01:21;6.53;;;3.75;;
77597;SDS011;66756;42.774;23.354;2023-09-19T13:06:47;7.15;;;3.83;;
77597;SDS011;66756;42.774;23.354;2023-09-19T13:09:14;8.68;;;4.10;;
77597;SDS011;66756;42.774;23.354;2023-09-19T13:11:40;7.25;;;4.43;;
77597;SDS011;66756;42.774;23.354;2023-09-19T13:14:21;6.80;;;3.88;;
77597;SDS011;66756;42.774;23.354;2023-09-19T13:17:07;7.07;;;4.60;;
77597;SDS011;66756;42.774;23.354;2023-09-19T13:19:49;7.10;;;4.18;;
77597;SDS011;66756;42.774;23.354;2023-09-19T13:25:07;7.45;;;4.50;;
77597;SDS011;66756;42.774;23.354;2023-09-19T13:27:38;7.13;;;4.65;;
77597;SDS011;66756;42.774;23.354;2023-09-19T13:30:05;5.68;;;3.83;;
77597;SDS011;66756;42.774;23.354;2023-09-19T13:32:32;6.38;;;4.10;;
77597;SDS011;66756;42.774;23.354;2023-09-19T13:34:58;5.88;;;4.07;;
77597;SDS011;66756;42.774;23.354;2023-09-19T13:37:24;6.30;;;4.35;;
77597;SDS011;66756;42.774;23.354;2023-09-19T13:39:51;7.60;;;4.97;;
77597;SDS011;66756;42.774;23.354;2023-09-19T13:42:18;7.88;;;4.72;;
77597;SDS011;66756;42.774;23.354;2023-09-19T13:44:46;5.88;;;4.35;;
77597;SDS011;66756;42.774;23.354;2023-09-19T13:47:12;5.90;;;4.20;;
77597;SDS011;66756;42.774;23.354;2023-09-19T13:49:40;7.30;;;4.15;;
77597;SDS011;66756;42.774;23.354;2023-09-19T13:52:08;6.88;;;4.25;;
77597;SDS011;66756;42.774;23.354;2023-09-19T13:54:34;10.57;;;4.53;;
77597;SDS011;66756;42.774;23.354;2023-09-19T13:57:00;5.90;;;4.35;;
77597;SDS011;66756;42.774;23.354;2023-09-19T13:59:26;6.28;;;3.85;;
77597;SDS011;66756;42.774;23.354;2023-09-19T14:01:53;6.00;;;3.80;;
77597;SDS011;66756;42.774;23.354;2023-09-19T14:04:20;7.22;;;4.40;;
77597;SDS011;66756;42.774;23.354;2023-09-19T14:06:47;6.45;;;4.35;;
77597;SDS011;66756;42.774;23.354;2023-09-19T14:09:13;6.10;;;3.70;;
77597;SDS011;66756;42.774;23.354;2023-09-19T14:11:39;6.20;;;3.75;;
77597;SDS011;66756;42.774;23.354;2023-09-19T14:14:07;7.78;;;4.07;;
77597;SDS011;66756;42.774;23.354;2023-09-19T14:16:33;6.72;;;4.15;;
77597;SDS011;66756;42.774;23.354;2023-09-19T14:18:59;5.90;;;3.85;;
77597;SDS011;66756;42.774;23.354;2023-09-19T14:21:25;6.07;;;4.13;;
77597;SDS011;66756;42.774;23.354;2023-09-19T14:23:51;5.57;;;3.60;;
77597;SDS011;66756;42.774;23.354;2023-09-19T14:26:19;4.35;;;3.50;;
77597;SDS011;66756;42.774;23.354;2023-09-19T14:28:48;6.82;;;3.85;;
77597;SDS011;66756;42.774;23.354;2023-09-19T14:31:14;7.93;;;3.92;;
77597;SDS011;66756;42.774;23.354;2023-09-19T14:33:40;6.68;;;4.18;;
77597;SDS011;66756;42.774;23.354;2023-09-19T14:36:07;6.20;;;3.83;;
77597;SDS011;66756;42.774;23.354;2023-09-19T14:38:34;5.85;;;4.05;;
77597;SDS011;66756;42.774;23.354;2023-09-19T14:41:01;6.10;;;3.72;;
77597;SDS011;66756;42.774;23.354;2023-09-19T14:43:27;4.60;;;3.38;;
77597;SDS011;66756;42.774;23.354;2023-09-19T14:45:55;8.10;;;3.60;;
77597;SDS011;66756;42.774;23.354;2023-09-19T14:48:22;5.35;;;4.20;;
77597;SDS011;66756;42.774;23.354;2023-09-19T14:50:51;8.27;;;4.20;;
77597;SDS011;66756;42.774;23.354;2023-09-19T14:53:17;6.57;;;4.10;;
77597;SDS011;66756;42.774;23.354;2023-09-19T14:55:44;5.40;;;3.58;;
77597;SDS011;66756;42.774;23.354;2023-09-19T14:58:12;6.15;;;4.25;;
77597;SDS011;66756;42.774;23.354;2023-09-19T15:00:38;7.60;;;4.07;;
77597;SDS011;66756;42.774;23.354;2023-09-19T15:03:04;5.57;;;4.15;;
77597;SDS011;66756;42.774;23.354;2023-09-19T15:05:31;6.00;;;4.28;;
77597;SDS011;66756;42.774;23.354;2023-09-19T15:07:57;5.95;;;4.20;;
77597;SDS011;66756;42.774;23.354;2023-09-19T15:10:23;10.90;;;4.85;;
77597;SDS011;66756;42.774;23.354;2023-09-19T15:12:49;5.88;;;4.15;;
77597;SDS011;66756;42.774;23.354;2023-09-19T15:15:15;8.93;;;4.63;;
77597;SDS011;66756;42.774;23.354;2023-09-19T15:17:41;7.10;;;4.57;;
77597;SDS011;66756;42.774;23.354;2023-09-19T15:20:08;8.00;;;4.70;;
77597;SDS011;66756;42.774;23.354;2023-09-19T15:22:34;5.03;;;4.07;;
77597;SDS011;66756;42.774;23.354;2023-09-19T15:25:01;5.35;;;4.03;;
77597;SDS011;66756;42.774;23.354;2023-09-19T15:27:27;6.85;;;4.15;;
77597;SDS011;66756;42.774;23.354;2023-09-19T15:29:56;7.03;;;4.07;;
77597;SDS011;66756;42.774;23.354;2023-09-19T15:32:23;6.00;;;4.50;;
77597;SDS011;66756;42.774;23.354;2023-09-19T15:34:49;6.00;;;3.97;;
77597;SDS011;66756;42.774;23.354;2023-09-19T15:37:15;7.80;;;4.20;;
77597;SDS011;66756;42.774;23.354;2023-09-19T15:39:41;7.72;;;4.65;;
77597;SDS011;66756;42.774;23.354;2023-09-19T15:42:09;6.57;;;4.45;;
77597;SDS011;66756;42.774;23.354;2023-09-19T15:44:36;7.20;;;4.18;;
77597;SDS011;66756;42.774;23.354;2023-09-19T15:47:03;8.10;;;4.28;;
77597;SDS011;66756;42.774;23.354;2023-09-19T15:49:29;7.30;;;4.53;;
77597;SDS011;66756;42.774;23.354;2023-09-19T15:51:55;6.72;;;5.40;;
77597;SDS011;66756;42.774;23.354;2023-09-19T15:54:21;8.25;;;4.18;;
77597;SDS011;66756;42.774;23.354;2023-09-19T15:56:47;6.30;;;4.05;;